Archimede — IXZR — position and weather

sailwx.info

Track history (hours):
 
Tides and Currents Weather Stations Pressure Air Temp Water Temp Dewpoint Dewpoint Depression Visibility Wind Speed Wind Dir Waves Ship Positions

Archimede

Last reported at 2017-Nov-23 07:30 UTC. Time now 2017-Nov-23 07:43 UTC.
Position N 38°08' E 015°32'.

; draft 3 m.

Type: Passenger vessel. MMSI: 247054700.

Date/timePositionNaut miles runAvg speedWind from/ knotsBaromVisibWave heightAir tempDewpointWater temp
2017-Nov-23 07:30N 38°08' E 015°32'510.3
2017-Nov-23 06:59N 38°12' E 015°36'2 4.5
2017-Nov-23 06:30N 38°13' E 015°38'5 9.3
2017-Nov-23 05:59N 38°09' E 015°36'3 6.7
2017-Nov-23 05:30N 38°08' E 015°31'5 9.7
2017-Nov-23 05:00N 38°12' E 015°35'3 5.5
2017-Nov-23 04:30N 38°13' E 015°38'510.9
2017-Nov-23 04:00N 38°09' E 015°34'1 2.6
2017-Nov-23 03:30N 38°09' E 015°33'611.5
2017-Nov-23 03:00N 38°14' E 015°38'3 5.5
2017-Nov-23 02:30N 38°11' E 015°37'5 9.3
2017-Nov-23 01:57N 38°08' E 015°32'2 3.9
2017-Nov-23 01:30N 38°09' E 015°33'611.2
2017-Nov-23 01:00N 38°13' E 015°38'2 4.3
2017-Nov-23 00:30N 38°11' E 015°37'5 9.3
2017-Nov-23 00:00N 38°08' E 015°32'0 0.5
2017-Nov-22 23:30N 38°09' E 015°32'612.0
2017-Nov-22 22:59N 38°14' E 015°36'2 3.3
2017-Nov-22 22:30N 38°13' E 015°38'510.7
2017-Nov-22 22:00N 38°09' E 015°35'3 5.2
2017-Nov-22 21:30N 38°08' E 015°32'3 6.0
2017-Nov-22 21:00N 38°10' E 015°34'4 8.8
2017-Nov-22 20:30N 38°13' E 015°38'2 3.9
2017-Nov-22 20:00N 38°11' E 015°37'6 6.1
2017-Nov-22 19:05N 38°08' E 015°31'  
2017-Nov-20 00:30N 38°13' E 015°38'4 8.4
2017-Nov-20 00:00N 38°09' E 015°36'4 6.4
2017-Nov-19 23:22N 38°08' E 015°31'3 8.7
2017-Nov-19 23:00N 38°10' E 015°34'4 8.8
2017-Nov-19 22:30N 38°13' E 015°38'3 6.2
2017-Nov-19 22:00N 38°10' E 015°37'5 8.3
2017-Nov-19 21:23N 38°08' E 015°31'2 5.9
2017-Nov-19 21:00N 38°09' E 015°34'510.5
2017-Nov-19 20:30N 38°13' E 015°38'3 5.1
2017-Nov-19 20:00N 38°11' E 015°36'5 7.6
2017-Nov-19 19:21N 38°08' E 015°31'3 8.3
2017-Nov-19 19:00N 38°10' E 015°34'5 9.4
2017-Nov-19 18:30N 38°13' E 015°38'3 6.1
2017-Nov-19 18:01N 38°10' E 015°37'5 6.9
2017-Nov-19 17:18N 38°08' E 015°32'310.5
2017-Nov-19 17:01N 38°10' E 015°35'4 8.0
2017-Nov-19 16:31N 38°13' E 015°38'4 8.2
2017-Nov-19 15:59N 38°09' E 015°36'4 8.6
2017-Nov-19 15:30N 38°08' E 015°31'3 6.7
2017-Nov-19 15:00N 38°10' E 015°35'4 8.3
2017-Nov-19 14:30N 38°13' E 015°38'5 9.4
2017-Nov-19 13:59N 38°09' E 015°36'3 6.8
2017-Nov-19 13:29N 38°08' E 015°31'4 9.1
2017-Nov-19 13:00N 38°11' E 015°35'3 6.3
2017-Nov-19 12:31N 38°13' E 015°38'4 8.5
2017-Nov-19 12:00N 38°09' E 015°37'4 5.8
2017-Nov-19 11:16N 38°08' E 015°31'2 9.3
2017-Nov-19 11:00N 38°09' E 015°34'510.1
2017-Nov-19 10:30N 38°13' E 015°38'4 7.3
2017-Nov-19 09:59N 38°10' E 015°36'4 9.0
2017-Nov-19 09:30N 38°08' E 015°31'4 7.9
2017-Nov-19 09:00N 38°11' E 015°35'4 7.1
2017-Nov-19 08:31N 38°13' E 015°38'0 0.0
2017-Nov-19 08:01N 38°13' E 015°38'0 0.0
2017-Nov-19 07:30N 38°13' E 015°38'0 0.0
2017-Nov-19 07:00N 38°13' E 015°38'0 0.0
2017-Nov-19 06:31N 38°13' E 015°38'4 7.5
2017-Nov-19 06:01N 38°10' E 015°37'4 8.2
2017-Nov-19 05:29N 38°08' E 015°32'510.2
2017-Nov-19 05:00N 38°12' E 015°35'2 4.2
2017-Nov-19 04:30N 38°13' E 015°38'611.4
2017-Nov-19 04:00N 38°09' E 015°33'1 2.5
2017-Nov-19 03:30N 38°08' E 015°32'510.8
2017-Nov-19 03:00N 38°12' E 015°36'1 2.8
2017-Nov-19 02:30N 38°11' E 015°37'510.5
2017-Nov-19 02:00N 38°08' E 015°32'0 0.3
2017-Nov-19 01:30N 38°08' E 015°32'611.7
2017-Nov-19 01:00N 38°13' E 015°36'1 1.7
2017-Nov-19 00:30N 38°13' E 015°37'4 9.0
2017-Nov-19 00:00N 38°09' E 015°35'3 5.0
2017-Nov-18 23:30N 38°08' E 015°31'611.4
2017-Nov-18 23:00N 38°12' E 015°36'2 3.8
2017-Nov-18 22:30N 38°13' E 015°38'5 9.5
2017-Nov-18 22:00N 38°09' E 015°36'4 7.2
2017-Nov-18 21:30N 38°08' E 015°31'2 5.0
2017-Nov-18 21:00N 38°09' E 015°34'510.1
2017-Nov-18 20:30N 38°13' E 015°38'4 8.1
2017-Nov-18 20:00N 38°10' E 015°36'4 7.8
2017-Nov-18 19:29N 38°08' E 015°31'510.0
2017-Nov-18 19:00N 38°12' E 015°35'3 5.0
2017-Nov-18 18:30N 38°13' E 015°38'510.6
2017-Nov-18 18:00N 38°09' E 015°34'2 4.8
2017-Nov-18 17:30N 38°08' E 015°32'5 9.9
2017-Nov-18 17:00N 38°12' E 015°35'3 5.0
2017-Nov-18 16:30N 38°13' E 015°38'510.3
2017-Nov-18 16:00N 38°09' E 015°35'3 5.7
2017-Nov-18 15:30N 38°08' E 015°31'5 9.9
2017-Nov-18 15:00N 38°12' E 015°36'3 5.0
2017-Nov-18 14:30N 38°13' E 015°38'510.1
2017-Nov-18 14:00N 38°09' E 015°36'3 6.3
2017-Nov-18 13:30N 38°08' E 015°32'4 8.2
2017-Nov-18 13:00N 38°11' E 015°35'3 6.5
2017-Nov-18 12:30N 38°13' E 015°38'4 8.1
2017-Nov-18 12:00N 38°10' E 015°36'4 8.5
2017-Nov-18 11:30N 38°08' E 015°31'3 6.0
2017-Nov-18 11:01N 38°10' E 015°35'5 9.2
2017-Nov-18 10:31N 38°13' E 015°38'4 8.4
2017-Nov-18 10:00N 38°09' E 015°36'4 8.1
2017-Nov-18 09:31N 38°08' E 015°31'4 8.0
2017-Nov-18 09:01N 38°11' E 015°35'3 7.0
2017-Nov-18 08:30N 38°13' E 015°38'5 9.1
2017-Nov-18 08:00N 38°09' E 015°36'4 7.1
2017-Nov-18 07:29N 38°08' E 015°31'4 8.0
2017-Nov-18 07:00N 38°11' E 015°35'4 7.4
2017-Nov-18 06:30N 38°13' E 015°38'4 8.4
2017-Nov-18 06:00N 38°09' E 015°36'4 8.2
2017-Nov-18 05:30N 38°08' E 015°31'4 7.6
2017-Nov-18 05:00N 38°11' E 015°35'4 7.1
2017-Nov-18 04:30N 38°13' E 015°38'2 5.0
2017-Nov-18 04:00N 38°11' E 015°37'510.8
2017-Nov-18 03:30N 38°08' E 015°31'3 5.7
2017-Nov-18 03:00N 38°10' E 015°34'5 9.2
2017-Nov-18 02:30N 38°13' E 015°38'3 6.3
2017-Nov-18 02:00N 38°10' E 015°37'5 9.8
2017-Nov-18 01:30N 38°08' E 015°32'1 2.6
2017-Nov-18 01:00N 38°09' E 015°33'611.5
2017-Nov-18 00:30N 38°13' E 015°37'2 4.2
2017-Nov-18 00:00N 38°11' E 015°37'4 8.6
2017-Nov-17 23:30N 38°08' E 015°33'1 1.4
2017-Nov-17 23:01N 38°09' E 015°33'612.1
2017-Nov-17 22:30N 38°13' E 015°37'3 5.2
2017-Nov-17 22:00N 38°11' E 015°37'510.3
2017-Nov-17 21:30N 38°08' E 015°32'3 5.9
2017-Nov-17 21:00N 38°10' E 015°34'4 8.8
2017-Nov-17 20:30N 38°13' E 015°38'4 7.5
2017-Nov-17 20:00N 38°10' E 015°37'4 9.0
2017-Nov-17 19:30N 38°08' E 015°31'0 0.1
2017-Nov-17 19:00N 38°08' E 015°31'3 5.2
2017-Nov-17 18:30N 38°10' E 015°34'5 9.8
2017-Nov-17 18:00N 38°13' E 015°38'0 0.1
2017-Nov-17 17:30N 38°13' E 015°38'0 0.0
2017-Nov-17 17:00N 38°13' E 015°38'5 9.8
2017-Nov-17 16:30N 38°09' E 015°35'3 6.6
2017-Nov-17 16:00N 38°08' E 015°31'4 8.5
2017-Nov-17 15:30N 38°11' E 015°35'3 6.5
2017-Nov-17 15:00N 38°13' E 015°38'3 6.3
2017-Nov-17 14:30N 38°10' E 015°37'5 9.6
2017-Nov-17 14:00N 38°08' E 015°32'0 0.8
2017-Nov-17 13:30N 38°08' E 015°32'611.3
2017-Nov-17 13:00N 38°13' E 015°36'1 2.8
2017-Nov-17 12:30N 38°13' E 015°38'5 9.6
2017-Nov-17 12:00N 38°09' E 015°36'4 7.1
2017-Nov-17 11:30N 38°08' E 015°31'4 7.7
2017-Nov-17 11:00N 38°11' E 015°35'4 7.3
2017-Nov-17 10:30N 38°13' E 015°38'5 9.2
2017-Nov-17 10:00N 38°09' E 015°36'4 7.2
2017-Nov-17 09:30N 38°08' E 015°32'611.2
2017-Nov-17 09:00N 38°12' E 015°36'1 2.4
2017-Nov-17 08:30N 38°12' E 015°37'510.1
2017-Nov-17 08:00N 38°08' E 015°33'2 4.7
2017-Nov-17 07:30N 38°10' E 015°35'4 8.8
2017-Nov-17 07:00N 38°13' E 015°38'4 8.1
2017-Nov-17 06:30N 38°09' E 015°37'4 7.0
2017-Nov-17 05:53N 38°08' E 015°31'0 0.0
2017-Nov-17 05:30N 38°08' E 015°31'5 9.8
2017-Nov-17 05:00N 38°12' E 015°35'3 5.1
2017-Nov-17 04:30N 38°13' E 015°38'2 5.0
2017-Nov-17 04:00N 38°11' E 015°37'510.7
2017-Nov-17 03:30N 38°08' E 015°31'4 7.1
2017-Nov-17 03:00N 38°10' E 015°35'4 7.8
2017-Nov-17 02:30N 38°13' E 015°38'2 4.9
2017-Nov-17 02:00N 38°11' E 015°37'510.5
2017-Nov-17 01:30N 38°08' E 015°32'4 7.2
2017-Nov-17 01:00N 38°11' E 015°35'4 7.4
2017-Nov-17 00:30N 38°13' E 015°38'5 9.4
2017-Nov-17 00:00N 38°09' E 015°36'4 7.1
2017-Nov-16 23:30N 38°08' E 015°31'510.7
2017-Nov-16 23:01N 38°12' E 015°36'2 4.3
2017-Nov-16 22:31N 38°13' E 015°38'5 9.3
2017-Nov-16 22:00N 38°09' E 015°36'4 7.3
2017-Nov-16 21:30N 38°08' E 015°31'3 6.7
2017-Nov-16 21:00N 38°10' E 015°34'4 8.2
2017-Nov-16 20:31N 38°13' E 015°38'4 7.6
2017-Nov-16 20:01N 38°10' E 015°37'4 8.2
2017-Nov-16 19:28N 38°08' E 015°31'2 4.7
2017-Nov-16 19:01N 38°09' E 015°33'510.7
2017-Nov-16 18:30N 38°13' E 015°38'3 6.2
2017-Nov-16 18:00N 38°10' E 015°37'510.0
2017-Nov-16 17:30N 38°08' E 015°31'4 7.2
2017-Nov-16 17:00N 38°10' E 015°35'4 7.8
2017-Nov-16 16:30N 38°13' E 015°38'3 5.2
2017-Nov-16 16:00N 38°11' E 015°37'510.7
2017-Nov-16 15:30N 38°08' E 015°31'3 5.4
2017-Nov-16 15:00N 38°10' E 015°34'5 9.7
2017-Nov-16 14:30N 38°13' E 015°38'2 4.9
2017-Nov-16 14:00N 38°11' E 015°37'510.1
2017-Nov-16 13:29N 38°08' E 015°32'2 3.1
2017-Nov-16 13:00N 38°09' E 015°33'511.0
2017-Nov-16 12:30N 38°13' E 015°37'1 1.7
2017-Nov-16 12:00N 38°13' E 015°37'2 4.7
2017-Nov-16 11:30N 38°13' E 015°34'0 0.0
2017-Nov-16 11:00N 38°13' E 015°34'0 0.0
2017-Nov-16 10:30N 38°13' E 015°34'0 0.0
2017-Nov-16 10:00N 38°13' E 015°34'0 0.0
2017-Nov-16 09:31N 38°13' E 015°34'0 0.0
2017-Nov-16 09:00N 38°13' E 015°34'3 6.4
2017-Nov-16 08:31N 38°13' E 015°38'611.1
2017-Nov-16 08:00N 38°09' E 015°34'2 3.2
2017-Nov-16 07:31N 38°08' E 015°32'510.3
2017-Nov-16 07:01N 38°12' E 015°36'1 2.5
2017-Nov-16 06:30N 38°12' E 015°37'611.0
2017-Nov-16 06:00N 38°08' E 015°32'0 0.5
2017-Nov-16 05:30N 38°08' E 015°32'510.1
2017-Nov-16 05:00N 38°12' E 015°36'2 4.3
2017-Nov-16 04:30N 38°13' E 015°38'510.7
2017-Nov-16 04:00N 38°09' E 015°35'3 5.3
2017-Nov-16 03:30N 38°08' E 015°31'4 8.1
2017-Nov-16 03:00N 38°11' E 015°35'3 7.0
2017-Nov-16 02:30N 38°13' E 015°38'510.0
2017-Nov-16 02:00N 38°10' E 015°34'2 4.5
2017-Nov-16 01:30N 38°08' E 015°32'5 9.8
2017-Nov-16 01:00N 38°12' E 015°36'2 4.7
2017-Nov-16 00:30N 38°13' E 015°38'611.1
2017-Nov-16 00:00N 38°09' E 015°33'1 3.0
2017-Nov-15 23:30N 38°08' E 015°32'612.4
2017-Nov-15 23:00N 38°13' E 015°36'1 2.3
2017-Nov-15 22:30N 38°13' E 015°38'3 5.5
2017-Nov-15 22:00N 38°11' E 015°35'5 9.0
2017-Nov-15 21:30N 38°08' E 015°31'3 7.0
2017-Nov-15 21:00N 38°10' E 015°35'4 8.2
2017-Nov-15 20:30N 38°13' E 015°38'4 7.2
2017-Nov-15 20:00N 38°11' E 015°35'4 7.9
2017-Nov-15 19:30N 38°08' E 015°31'510.3
2017-Nov-15 19:00N 38°12' E 015°36'1 2.6
2017-Nov-15 18:30N 38°13' E 015°37'612.6
2017-Nov-15 18:00N 38°08' E 015°32'1 1.3
2017-Nov-15 17:30N 38°08' E 015°32'510.8
2017-Nov-15 17:00N 38°13' E 015°36'1 2.2
2017-Nov-15 16:30N 38°13' E 015°37'713.0
2017-Nov-15 16:00N 38°08' E 015°32'0 0.2
2017-Nov-15 15:30N 38°08' E 015°32'510.5
2017-Nov-15 15:00N 38°13' E 015°36'2 3.5
2017-Nov-15 14:30N 38°13' E 015°38'612.8
2017-Nov-15 14:00N 38°09' E 015°32'1 2.3
2017-Nov-15 13:30N 38°08' E 015°31'510.7
2017-Nov-15 13:00N 38°12' E 015°36'2 4.3
2017-Nov-15 12:30N 38°13' E 015°38'611.4
2017-Nov-15 12:00N 38°09' E 015°33'2 3.6
2017-Nov-15 11:30N 38°08' E 015°31'4 8.6
2017-Nov-15 11:00N 38°11' E 015°35'3 6.5
2017-Nov-15 10:30N 38°13' E 015°38'4 7.4
2017-Nov-15 10:00N 38°11' E 015°35'4 7.6
2017-Nov-15 09:30N 38°08' E 015°31'3 5.3
2017-Nov-15 09:01N 38°10' E 015°34'5 9.7
2017-Nov-15 08:30N 38°13' E 015°38'4 7.3
2017-Nov-15 08:00N 38°11' E 015°35'4 7.6
2017-Nov-15 07:30N 38°08' E 015°31'5 9.3
2017-Nov-15 07:00N 38°12' E 015°35'3 5.8
2017-Nov-15 06:30N 38°13' E 015°38'510.0
2017-Nov-15 06:00N 38°09' E 015°35'3 6.1
2017-Nov-15 05:30N 38°08' E 015°32'5 9.8
2017-Nov-15 05:00N 38°12' E 015°35'2 4.9
2017-Nov-15 04:30N 38°13' E 015°38'510.8
2017-Nov-15 04:00N 38°09' E 015°34'1 2.4
2017-Nov-15 03:30N 38°09' E 015°32'510.3
2017-Nov-15 03:00N 38°13' E 015°36'1 1.9
2017-Nov-15 02:30N 38°12' E 015°37'510.7
2017-Nov-15 02:00N 38°08' E 015°33'2 4.4
2017-Nov-15 01:30N 38°10' E 015°34'4 8.9
2017-Nov-15 01:00N 38°13' E 015°38'3 6.9
2017-Nov-15 00:30N 38°10' E 015°37'5 9.6
2017-Nov-15 00:00N 38°08' E 015°31'3 5.2
2017-Nov-14 23:30N 38°09' E 015°34'5 9.7
2017-Nov-14 23:00N 38°13' E 015°38'2 3.3
2017-Nov-14 22:30N 38°12' E 015°37'4 8.2
2017-Nov-14 22:00N 38°09' E 015°34'2 4.0
2017-Nov-14 21:30N 38°08' E 015°32'611.7
2017-Nov-14 21:00N 38°13' E 015°36'1 2.9
2017-Nov-14 20:30N 38°13' E 015°38'5 9.5
2017-Nov-14 20:00N 38°09' E 015°36'3 6.7
2017-Nov-14 19:30N 38°08' E 015°31'4 7.9
2017-Nov-14 19:00N 38°11' E 015°35'4 7.1
2017-Nov-14 18:31N 38°13' E 015°38'5 9.1
2017-Nov-14 18:01N 38°10' E 015°34'3 6.0
2017-Nov-14 17:31N 38°08' E 015°31'510.7
2017-Nov-14 17:01N 38°12' E 015°36'2 4.4
2017-Nov-14 16:31N 38°13' E 015°38'611.3
2017-Nov-14 16:01N 38°09' E 015°33'0 1.0
2017-Nov-14 15:31N 38°09' E 015°33'611.0
2017-Nov-14 15:01N 38°13' E 015°37'1 1.4
2017-Nov-14 14:31N 38°13' E 015°37'611.8
2017-Nov-14 14:00N 38°08' E 015°32'0 0.8
2017-Nov-14 13:30N 38°09' E 015°32'510.6
2017-Nov-14 13:01N 38°13' E 015°36'1 3.0
2017-Nov-14 12:30N 38°13' E 015°38'510.5
2017-Nov-14 12:01N 38°10' E 015°33'2 4.4
2017-Nov-14 11:30N 38°08' E 015°31'5 9.4
2017-Nov-14 11:01N 38°11' E 015°35'3 5.7
2017-Nov-14 10:31N 38°13' E 015°38'5 9.3
2017-Nov-14 10:01N 38°09' E 015°36'4 7.3
2017-Nov-14 09:31N 38°08' E 015°31'5 9.1
2017-Nov-14 09:01N 38°11' E 015°35'3 6.0
2017-Nov-14 08:31N 38°13' E 015°38'4 8.6
2017-Nov-14 08:01N 38°09' E 015°36'4 7.8
2017-Nov-14 07:30N 38°08' E 015°31'4 8.4
2017-Nov-14 07:00N 38°11' E 015°35'3 6.7
2017-Nov-14 06:31N 38°13' E 015°38'4 8.7
2017-Nov-14 06:01N 38°09' E 015°36'4 8.3
2017-Nov-14 05:31N 38°08' E 015°31'4 7.3
2017-Nov-14 05:01N 38°11' E 015°35'4 7.5
2017-Nov-14 04:31N 38°13' E 015°38'3 5.6
2017-Nov-14 04:00N 38°11' E 015°37'510.2
2017-Nov-14 03:30N 38°08' E 015°31'2 3.0
2017-Nov-14 03:01N 38°09' E 015°33'611.2
2017-Nov-14 02:31N 38°13' E 015°37'0 0.9
2017-Nov-14 02:01N 38°13' E 015°38'0 0.0
2017-Nov-14 01:30N 38°13' E 015°38'1 1.5
2017-Nov-14 01:01N 38°13' E 015°37'510.7
2017-Nov-14 00:31N 38°08' E 015°33'1 1.5
2017-Nov-14 00:00N 38°08' E 015°32'511.0
2017-Nov-13 23:31N 38°13' E 015°36'1 2.6
2017-Nov-13 23:01N 38°13' E 015°38'4 7.9
2017-Nov-13 22:30N 38°09' E 015°36'4 8.4
2017-Nov-13 22:01N 38°08' E 015°31'  
Track history (hours):
 
Tides and Currents Weather Stations Pressure Air Temp Water Temp Dewpoint Dewpoint Depression Visibility Wind Speed Wind Dir Waves Ship Positions

Archimede

Last reported at 2017-Nov-23 07:30 UTC. Time now 2017-Nov-23 07:43 UTC.
Position N 38°08' E 015°32'.

; draft 3 m.

Type: Passenger vessel. MMSI: 247054700.

Date/timePositionNaut miles runAvg speedWind from/ knotsBaromVisibWave heightAir tempDewpointWater temp
2017-Nov-23 07:30N 38°08' E 015°32'510.3
2017-Nov-23 06:59N 38°12' E 015°36'2 4.5
2017-Nov-23 06:30N 38°13' E 015°38'5 9.3
2017-Nov-23 05:59N 38°09' E 015°36'3 6.7
2017-Nov-23 05:30N 38°08' E 015°31'5 9.7
2017-Nov-23 05:00N 38°12' E 015°35'3 5.5
2017-Nov-23 04:30N 38°13' E 015°38'510.9
2017-Nov-23 04:00N 38°09' E 015°34'1 2.6
2017-Nov-23 03:30N 38°09' E 015°33'611.5
2017-Nov-23 03:00N 38°14' E 015°38'3 5.5
2017-Nov-23 02:30N 38°11' E 015°37'5 9.3
2017-Nov-23 01:57N 38°08' E 015°32'2 3.9
2017-Nov-23 01:30N 38°09' E 015°33'611.2
2017-Nov-23 01:00N 38°13' E 015°38'2 4.3
2017-Nov-23 00:30N 38°11' E 015°37'5 9.3
2017-Nov-23 00:00N 38°08' E 015°32'0 0.5
2017-Nov-22 23:30N 38°09' E 015°32'612.0
2017-Nov-22 22:59N 38°14' E 015°36'2 3.3
2017-Nov-22 22:30N 38°13' E 015°38'510.7
2017-Nov-22 22:00N 38°09' E 015°35'3 5.2
2017-Nov-22 21:30N 38°08' E 015°32'3 6.0
2017-Nov-22 21:00N 38°10' E 015°34'4 8.8
2017-Nov-22 20:30N 38°13' E 015°38'2 3.9
2017-Nov-22 20:00N 38°11' E 015°37'6 6.1
2017-Nov-22 19:05N 38°08' E 015°31'  
2017-Nov-20 00:30N 38°13' E 015°38'4 8.4
2017-Nov-20 00:00N 38°09' E 015°36'4 6.4
2017-Nov-19 23:22N 38°08' E 015°31'3 8.7
2017-Nov-19 23:00N 38°10' E 015°34'4 8.8
2017-Nov-19 22:30N 38°13' E 015°38'3 6.2
2017-Nov-19 22:00N 38°10' E 015°37'5 8.3
2017-Nov-19 21:23N 38°08' E 015°31'2 5.9
2017-Nov-19 21:00N 38°09' E 015°34'510.5
2017-Nov-19 20:30N 38°13' E 015°38'3 5.1
2017-Nov-19 20:00N 38°11' E 015°36'5 7.6
2017-Nov-19 19:21N 38°08' E 015°31'3 8.3
2017-Nov-19 19:00N 38°10' E 015°34'5 9.4
2017-Nov-19 18:30N 38°13' E 015°38'3 6.1
2017-Nov-19 18:01N 38°10' E 015°37'5 6.9
2017-Nov-19 17:18N 38°08' E 015°32'310.5
2017-Nov-19 17:01N 38°10' E 015°35'4 8.0
2017-Nov-19 16:31N 38°13' E 015°38'4 8.2
2017-Nov-19 15:59N 38°09' E 015°36'4 8.6
2017-Nov-19 15:30N 38°08' E 015°31'3 6.7
2017-Nov-19 15:00N 38°10' E 015°35'4 8.3
2017-Nov-19 14:30N 38°13' E 015°38'5 9.4
2017-Nov-19 13:59N 38°09' E 015°36'3 6.8
2017-Nov-19 13:29N 38°08' E 015°31'4 9.1
2017-Nov-19 13:00N 38°11' E 015°35'3 6.3
2017-Nov-19 12:31N 38°13' E 015°38'4 8.5
2017-Nov-19 12:00N 38°09' E 015°37'4 5.8
2017-Nov-19 11:16N 38°08' E 015°31'2 9.3
2017-Nov-19 11:00N 38°09' E 015°34'510.1
2017-Nov-19 10:30N 38°13' E 015°38'4 7.3
2017-Nov-19 09:59N 38°10' E 015°36'4 9.0
2017-Nov-19 09:30N 38°08' E 015°31'4 7.9
2017-Nov-19 09:00N 38°11' E 015°35'4 7.1
2017-Nov-19 08:31N 38°13' E 015°38'0 0.0
2017-Nov-19 08:01N 38°13' E 015°38'0 0.0
2017-Nov-19 07:30N 38°13' E 015°38'0 0.0
2017-Nov-19 07:00N 38°13' E 015°38'0 0.0
2017-Nov-19 06:31N 38°13' E 015°38'4 7.5
2017-Nov-19 06:01N 38°10' E 015°37'4 8.2
2017-Nov-19 05:29N 38°08' E 015°32'510.2
2017-Nov-19 05:00N 38°12' E 015°35'2 4.2
2017-Nov-19 04:30N 38°13' E 015°38'611.4
2017-Nov-19 04:00N 38°09' E 015°33'1 2.5
2017-Nov-19 03:30N 38°08' E 015°32'510.8
2017-Nov-19 03:00N 38°12' E 015°36'1 2.8
2017-Nov-19 02:30N 38°11' E 015°37'510.5
2017-Nov-19 02:00N 38°08' E 015°32'0 0.3
2017-Nov-19 01:30N 38°08' E 015°32'611.7
2017-Nov-19 01:00N 38°13' E 015°36'1 1.7
2017-Nov-19 00:30N 38°13' E 015°37'4 9.0
2017-Nov-19 00:00N 38°09' E 015°35'3 5.0
2017-Nov-18 23:30N 38°08' E 015°31'611.4
2017-Nov-18 23:00N 38°12' E 015°36'2 3.8
2017-Nov-18 22:30N 38°13' E 015°38'5 9.5
2017-Nov-18 22:00N 38°09' E 015°36'4 7.2
2017-Nov-18 21:30N 38°08' E 015°31'2 5.0
2017-Nov-18 21:00N 38°09' E 015°34'510.1
2017-Nov-18 20:30N 38°13' E 015°38'4 8.1
2017-Nov-18 20:00N 38°10' E 015°36'4 7.8
2017-Nov-18 19:29N 38°08' E 015°31'510.0
2017-Nov-18 19:00N 38°12' E 015°35'3 5.0
2017-Nov-18 18:30N 38°13' E 015°38'510.6
2017-Nov-18 18:00N 38°09' E 015°34'2 4.8
2017-Nov-18 17:30N 38°08' E 015°32'5 9.9
2017-Nov-18 17:00N 38°12' E 015°35'3 5.0
2017-Nov-18 16:30N 38°13' E 015°38'510.3
2017-Nov-18 16:00N 38°09' E 015°35'3 5.7
2017-Nov-18 15:30N 38°08' E 015°31'5 9.9
2017-Nov-18 15:00N 38°12' E 015°36'3 5.0
2017-Nov-18 14:30N 38°13' E 015°38'510.1
2017-Nov-18 14:00N 38°09' E 015°36'3 6.3
2017-Nov-18 13:30N 38°08' E 015°32'4 8.2
2017-Nov-18 13:00N 38°11' E 015°35'3 6.5
2017-Nov-18 12:30N 38°13' E 015°38'4 8.1
2017-Nov-18 12:00N 38°10' E 015°36'4 8.5
2017-Nov-18 11:30N 38°08' E 015°31'3 6.0
2017-Nov-18 11:01N 38°10' E 015°35'5 9.2
2017-Nov-18 10:31N 38°13' E 015°38'4 8.4
2017-Nov-18 10:00N 38°09' E 015°36'4 8.1
2017-Nov-18 09:31N 38°08' E 015°31'4 8.0
2017-Nov-18 09:01N 38°11' E 015°35'3 7.0
2017-Nov-18 08:30N 38°13' E 015°38'5 9.1
2017-Nov-18 08:00N 38°09' E 015°36'4 7.1
2017-Nov-18 07:29N 38°08' E 015°31'4 8.0
2017-Nov-18 07:00N 38°11' E 015°35'4 7.4
2017-Nov-18 06:30N 38°13' E 015°38'4 8.4
2017-Nov-18 06:00N 38°09' E 015°36'4 8.2
2017-Nov-18 05:30N 38°08' E 015°31'4 7.6
2017-Nov-18 05:00N 38°11' E 015°35'4 7.1
2017-Nov-18 04:30N 38°13' E 015°38'2 5.0
2017-Nov-18 04:00N 38°11' E 015°37'510.8
2017-Nov-18 03:30N 38°08' E 015°31'3 5.7
2017-Nov-18 03:00N 38°10' E 015°34'5 9.2
2017-Nov-18 02:30N 38°13' E 015°38'3 6.3
2017-Nov-18 02:00N 38°10' E 015°37'5 9.8
2017-Nov-18 01:30N 38°08' E 015°32'1 2.6
2017-Nov-18 01:00N 38°09' E 015°33'611.5
2017-Nov-18 00:30N 38°13' E 015°37'2 4.2
2017-Nov-18 00:00N 38°11' E 015°37'4 8.6
2017-Nov-17 23:30N 38°08' E 015°33'1 1.4
2017-Nov-17 23:01N 38°09' E 015°33'612.1
2017-Nov-17 22:30N 38°13' E 015°37'3 5.2
2017-Nov-17 22:00N 38°11' E 015°37'510.3
2017-Nov-17 21:30N 38°08' E 015°32'3 5.9
2017-Nov-17 21:00N 38°10' E 015°34'4 8.8
2017-Nov-17 20:30N 38°13' E 015°38'4 7.5
2017-Nov-17 20:00N 38°10' E 015°37'4 9.0
2017-Nov-17 19:30N 38°08' E 015°31'0 0.1
2017-Nov-17 19:00N 38°08' E 015°31'3 5.2
2017-Nov-17 18:30N 38°10' E 015°34'5 9.8
2017-Nov-17 18:00N 38°13' E 015°38'0 0.1
2017-Nov-17 17:30N 38°13' E 015°38'0 0.0
2017-Nov-17 17:00N 38°13' E 015°38'5 9.8
2017-Nov-17 16:30N 38°09' E 015°35'3 6.6
2017-Nov-17 16:00N 38°08' E 015°31'4 8.5
2017-Nov-17 15:30N 38°11' E 015°35'3 6.5
2017-Nov-17 15:00N 38°13' E 015°38'3 6.3
2017-Nov-17 14:30N 38°10' E 015°37'5 9.6
2017-Nov-17 14:00N 38°08' E 015°32'0 0.8
2017-Nov-17 13:30N 38°08' E 015°32'611.3
2017-Nov-17 13:00N 38°13' E 015°36'1 2.8
2017-Nov-17 12:30N 38°13' E 015°38'5 9.6
2017-Nov-17 12:00N 38°09' E 015°36'4 7.1
2017-Nov-17 11:30N 38°08' E 015°31'4 7.7
2017-Nov-17 11:00N 38°11' E 015°35'4 7.3
2017-Nov-17 10:30N 38°13' E 015°38'5 9.2
2017-Nov-17 10:00N 38°09' E 015°36'4 7.2
2017-Nov-17 09:30N 38°08' E 015°32'611.2
2017-Nov-17 09:00N 38°12' E 015°36'1 2.4
2017-Nov-17 08:30N 38°12' E 015°37'510.1
2017-Nov-17 08:00N 38°08' E 015°33'2 4.7
2017-Nov-17 07:30N 38°10' E 015°35'4 8.8
2017-Nov-17 07:00N 38°13' E 015°38'4 8.1
2017-Nov-17 06:30N 38°09' E 015°37'4 7.0
2017-Nov-17 05:53N 38°08' E 015°31'0 0.0
2017-Nov-17 05:30N 38°08' E 015°31'5 9.8
2017-Nov-17 05:00N 38°12' E 015°35'3 5.1
2017-Nov-17 04:30N 38°13' E 015°38'2 5.0
2017-Nov-17 04:00N 38°11' E 015°37'510.7
2017-Nov-17 03:30N 38°08' E 015°31'4 7.1
2017-Nov-17 03:00N 38°10' E 015°35'4 7.8
2017-Nov-17 02:30N 38°13' E 015°38'2 4.9
2017-Nov-17 02:00N 38°11' E 015°37'510.5
2017-Nov-17 01:30N 38°08' E 015°32'4 7.2
2017-Nov-17 01:00N 38°11' E 015°35'4 7.4
2017-Nov-17 00:30N 38°13' E 015°38'5 9.4
2017-Nov-17 00:00N 38°09' E 015°36'4 7.1
2017-Nov-16 23:30N 38°08' E 015°31'510.7
2017-Nov-16 23:01N 38°12' E 015°36'2 4.3
2017-Nov-16 22:31N 38°13' E 015°38'5 9.3
2017-Nov-16 22:00N 38°09' E 015°36'4 7.3
2017-Nov-16 21:30N 38°08' E 015°31'3 6.7
2017-Nov-16 21:00N 38°10' E 015°34'4 8.2
2017-Nov-16 20:31N 38°13' E 015°38'4 7.6
2017-Nov-16 20:01N 38°10' E 015°37'4 8.2
2017-Nov-16 19:28N 38°08' E 015°31'2 4.7
2017-Nov-16 19:01N 38°09' E 015°33'510.7
2017-Nov-16 18:30N 38°13' E 015°38'3 6.2
2017-Nov-16 18:00N 38°10' E 015°37'510.0
2017-Nov-16 17:30N 38°08' E 015°31'4 7.2
2017-Nov-16 17:00N 38°10' E 015°35'4 7.8
2017-Nov-16 16:30N 38°13' E 015°38'3 5.2
2017-Nov-16 16:00N 38°11' E 015°37'510.7
2017-Nov-16 15:30N 38°08' E 015°31'3 5.4
2017-Nov-16 15:00N 38°10' E 015°34'5 9.7
2017-Nov-16 14:30N 38°13' E 015°38'2 4.9
2017-Nov-16 14:00N 38°11' E 015°37'510.1
2017-Nov-16 13:29N 38°08' E 015°32'2 3.1
2017-Nov-16 13:00N 38°09' E 015°33'511.0
2017-Nov-16 12:30N 38°13' E 015°37'1 1.7
2017-Nov-16 12:00N 38°13' E 015°37'2 4.7
2017-Nov-16 11:30N 38°13' E 015°34'0 0.0
2017-Nov-16 11:00N 38°13' E 015°34'0 0.0
2017-Nov-16 10:30N 38°13' E 015°34'0 0.0
2017-Nov-16 10:00N 38°13' E 015°34'0 0.0
2017-Nov-16 09:31N 38°13' E 015°34'0 0.0
2017-Nov-16 09:00N 38°13' E 015°34'3 6.4
2017-Nov-16 08:31N 38°13' E 015°38'611.1
2017-Nov-16 08:00N 38°09' E 015°34'2 3.2
2017-Nov-16 07:31N 38°08' E 015°32'510.3
2017-Nov-16 07:01N 38°12' E 015°36'1 2.5
2017-Nov-16 06:30N 38°12' E 015°37'611.0
2017-Nov-16 06:00N 38°08' E 015°32'0 0.5
2017-Nov-16 05:30N 38°08' E 015°32'510.1
2017-Nov-16 05:00N 38°12' E 015°36'2 4.3
2017-Nov-16 04:30N 38°13' E 015°38'510.7
2017-Nov-16 04:00N 38°09' E 015°35'3 5.3
2017-Nov-16 03:30N 38°08' E 015°31'4 8.1
2017-Nov-16 03:00N 38°11' E 015°35'3 7.0
2017-Nov-16 02:30N 38°13' E 015°38'510.0
2017-Nov-16 02:00N 38°10' E 015°34'2 4.5
2017-Nov-16 01:30N 38°08' E 015°32'5 9.8
2017-Nov-16 01:00N 38°12' E 015°36'2 4.7
2017-Nov-16 00:30N 38°13' E 015°38'611.1
2017-Nov-16 00:00N 38°09' E 015°33'1 3.0
2017-Nov-15 23:30N 38°08' E 015°32'612.4
2017-Nov-15 23:00N 38°13' E 015°36'1 2.3
2017-Nov-15 22:30N 38°13' E 015°38'3 5.5
2017-Nov-15 22:00N 38°11' E 015°35'5 9.0
2017-Nov-15 21:30N 38°08' E 015°31'3 7.0
2017-Nov-15 21:00N 38°10' E 015°35'4 8.2
2017-Nov-15 20:30N 38°13' E 015°38'4 7.2
2017-Nov-15 20:00N 38°11' E 015°35'4 7.9
2017-Nov-15 19:30N 38°08' E 015°31'510.3
2017-Nov-15 19:00N 38°12' E 015°36'1 2.6
2017-Nov-15 18:30N 38°13' E 015°37'612.6
2017-Nov-15 18:00N 38°08' E 015°32'1 1.3
2017-Nov-15 17:30N 38°08' E 015°32'510.8
2017-Nov-15 17:00N 38°13' E 015°36'1 2.2
2017-Nov-15 16:30N 38°13' E 015°37'713.0
2017-Nov-15 16:00N 38°08' E 015°32'0 0.2
2017-Nov-15 15:30N 38°08' E 015°32'510.5
2017-Nov-15 15:00N 38°13' E 015°36'2 3.5
2017-Nov-15 14:30N 38°13' E 015°38'612.8
2017-Nov-15 14:00N 38°09' E 015°32'1 2.3
2017-Nov-15 13:30N 38°08' E 015°31'510.7
2017-Nov-15 13:00N 38°12' E 015°36'2 4.3
2017-Nov-15 12:30N 38°13' E 015°38'611.4
2017-Nov-15 12:00N 38°09' E 015°33'2 3.6
2017-Nov-15 11:30N 38°08' E 015°31'4 8.6
2017-Nov-15 11:00N 38°11' E 015°35'3 6.5
2017-Nov-15 10:30N 38°13' E 015°38'4 7.4
2017-Nov-15 10:00N 38°11' E 015°35'4 7.6
2017-Nov-15 09:30N 38°08' E 015°31'3 5.3
2017-Nov-15 09:01N 38°10' E 015°34'5 9.7
2017-Nov-15 08:30N 38°13' E 015°38'4 7.3
2017-Nov-15 08:00N 38°11' E 015°35'4 7.6
2017-Nov-15 07:30N 38°08' E 015°31'5 9.3
2017-Nov-15 07:00N 38°12' E 015°35'3 5.8
2017-Nov-15 06:30N 38°13' E 015°38'510.0
2017-Nov-15 06:00N 38°09' E 015°35'3 6.1
2017-Nov-15 05:30N 38°08' E 015°32'5 9.8
2017-Nov-15 05:00N 38°12' E 015°35'2 4.9
2017-Nov-15 04:30N 38°13' E 015°38'510.8
2017-Nov-15 04:00N 38°09' E 015°34'1 2.4
2017-Nov-15 03:30N 38°09' E 015°32'510.3
2017-Nov-15 03:00N 38°13' E 015°36'1 1.9
2017-Nov-15 02:30N 38°12' E 015°37'510.7
2017-Nov-15 02:00N 38°08' E 015°33'2 4.4
2017-Nov-15 01:30N 38°10' E 015°34'4 8.9
2017-Nov-15 01:00N 38°13' E 015°38'3 6.9
2017-Nov-15 00:30N 38°10' E 015°37'5 9.6
2017-Nov-15 00:00N 38°08' E 015°31'3 5.2
2017-Nov-14 23:30N 38°09' E 015°34'5 9.7
2017-Nov-14 23:00N 38°13' E 015°38'2 3.3
2017-Nov-14 22:30N 38°12' E 015°37'4 8.2
2017-Nov-14 22:00N 38°09' E 015°34'2 4.0
2017-Nov-14 21:30N 38°08' E 015°32'611.7
2017-Nov-14 21:00N 38°13' E 015°36'1 2.9
2017-Nov-14 20:30N 38°13' E 015°38'5 9.5
2017-Nov-14 20:00N 38°09' E 015°36'3 6.7
2017-Nov-14 19:30N 38°08' E 015°31'4 7.9
2017-Nov-14 19:00N 38°11' E 015°35'4 7.1
2017-Nov-14 18:31N 38°13' E 015°38'5 9.1
2017-Nov-14 18:01N 38°10' E 015°34'3 6.0
2017-Nov-14 17:31N 38°08' E 015°31'510.7
2017-Nov-14 17:01N 38°12' E 015°36'2 4.4
2017-Nov-14 16:31N 38°13' E 015°38'611.3
2017-Nov-14 16:01N 38°09' E 015°33'0 1.0
2017-Nov-14 15:31N 38°09' E 015°33'611.0
2017-Nov-14 15:01N 38°13' E 015°37'1 1.4
2017-Nov-14 14:31N 38°13' E 015°37'611.8
2017-Nov-14 14:00N 38°08' E 015°32'0 0.8
2017-Nov-14 13:30N 38°09' E 015°32'510.6
2017-Nov-14 13:01N 38°13' E 015°36'1 3.0
2017-Nov-14 12:30N 38°13' E 015°38'510.5
2017-Nov-14 12:01N 38°10' E 015°33'2 4.4
2017-Nov-14 11:30N 38°08' E 015°31'5 9.4
2017-Nov-14 11:01N 38°11' E 015°35'3 5.7
2017-Nov-14 10:31N 38°13' E 015°38'5 9.3
2017-Nov-14 10:01N 38°09' E 015°36'4 7.3
2017-Nov-14 09:31N 38°08' E 015°31'5 9.1
2017-Nov-14 09:01N 38°11' E 015°35'3 6.0
2017-Nov-14 08:31N 38°13' E 015°38'4 8.6
2017-Nov-14 08:01N 38°09' E 015°36'4 7.8
2017-Nov-14 07:30N 38°08' E 015°31'4 8.4
2017-Nov-14 07:00N 38°11' E 015°35'3 6.7
2017-Nov-14 06:31N 38°13' E 015°38'4 8.7
2017-Nov-14 06:01N 38°09' E 015°36'4 8.3
2017-Nov-14 05:31N 38°08' E 015°31'4 7.3
2017-Nov-14 05:01N 38°11' E 015°35'4 7.5
2017-Nov-14 04:31N 38°13' E 015°38'3 5.6
2017-Nov-14 04:00N 38°11' E 015°37'510.2
2017-Nov-14 03:30N 38°08' E 015°31'2 3.0
2017-Nov-14 03:01N 38°09' E 015°33'611.2
2017-Nov-14 02:31N 38°13' E 015°37'0 0.9
2017-Nov-14 02:01N 38°13' E 015°38'0 0.0
2017-Nov-14 01:30N 38°13' E 015°38'1 1.5
2017-Nov-14 01:01N 38°13' E 015°37'510.7
2017-Nov-14 00:31N 38°08' E 015°33'1 1.5
2017-Nov-14 00:00N 38°08' E 015°32'511.0
2017-Nov-13 23:31N 38°13' E 015°36'1 2.6
2017-Nov-13 23:01N 38°13' E 015°38'4 7.9
2017-Nov-13 22:30N 38°09' E 015°36'4 8.4
2017-Nov-13 22:01N 38°08' E 015°31'  

Dump ship's entire track history